Flight Track Log - Related Links

Times and Time Zones

All times are in EDT time to prevent confusion due to time zone crossing. See the UAL4108 flight status page for this flight to view local times or setup timezone preferences in your user account.

Time Position Orientation Groundspeed Altitude Reporting Facility
EDT Latitude Longitude Course Direction KTS MPH feet Rate Location/Type
Wed 07:07:24 AM 34.7156 -92.2494 193° South 157 181 900  Level Memphis Center
Wed 07:08:31 AM 34.6656 -92.2533 184° South 161 185 3,600 2,031 Climbing Memphis Center
Wed 07:09:31 AM 34.6175 -92.2525 179° South 187 215 5,200 1,438 Climbing Memphis Center
Wed 07:10:00 AM 34.4911 -92.3908 190° South  Level Estimated
Wed 07:10:32 AM 34.5486 -92.2533 181° South 255 293 6,500  Level Memphis Center
Wed 07:11:00 AM 34.4028 -92.3616 165° South  Level FlightAware Approximate
Wed 07:11:29 AM 34.4861 -92.2544 181° South 254 292 8,200  Level Memphis Center
Wed 07:12:00 AM 34.3239 -92.4180 193° South  Level Estimated
Wed 07:12:29 AM 34.4150 -92.2556 181° South 254 292 9,800  Level Memphis Center
Wed 07:13:29 AM 34.3378 -92.2639 185° South 265 305 10,700 750 Climbing Memphis Center
Wed 07:14:29 AM 34.2478 -92.2819 189° South 304 350 11,300 700 Climbing Memphis Center
Wed 07:15:29 AM 34.1536 -92.2975 188° South 326 375 12,100 900 Climbing Memphis Center
Wed 07:16:29 AM 34.0697 -92.3131 189° South 344 396 13,100 1,050 Climbing Memphis Center
Wed 07:17:29 AM 33.9756 -92.3286 188° South 351 404 14,200 1,050 Climbing Memphis Center
Wed 07:18:29 AM 33.8711 -92.3461 188° South 351 404 15,200 1,017 Climbing Memphis Center
Wed 07:19:27 AM 33.7772 -92.3586 186° South 357 411 16,200 1,068 Climbing Fort Worth Center
Wed 07:20:27 AM 33.6819 -92.3739 188° South 350 403 17,300 1,000 Climbing Fort Worth Center
Wed 07:21:27 AM 33.5844 -92.3894 188° South 350 403 18,200 1,000 Climbing Fort Worth Center
Wed 07:22:27 AM 33.4892 -92.4050 188° South 350 403 19,300 1,050 Climbing Fort Worth Center
Wed 07:23:27 AM 33.3917 -92.4203 187° South 350 403 20,300 1,000 Climbing Fort Worth Center
Wed 07:24:27 AM 33.2903 -92.4386 189° South 350 403 21,300 1,050 Climbing Fort Worth Center
Wed 07:25:27 AM 33.1908 -92.4567 189° South 373 429 22,400 1,050 Climbing Fort Worth Center
Wed 07:26:27 AM 33.0872 -92.4772 189° South 367 422 23,400 1,050 Climbing Fort Worth Center
Wed 07:27:27 AM 32.9856 -92.4953 188° South 372 428 24,500 1,000 Climbing Fort Worth Center
Wed 07:29:45 AM 32.7689 -92.5339 189° South 367 422 26,700 1,025 Climbing Houston Center
Wed 07:30:46 AM 32.6486 -92.5569 189° South 364 419 27,900 639 Climbing Houston Center
Wed 07:31:47 AM 32.5481 -92.5733 188° South 365 420 28,000 50 Climbing Houston Center
Wed 07:32:47 AM 32.4422 -92.5933 189° South 380 437 28,000  Level Houston Center
Wed 07:33:48 AM 32.3333 -92.6111 188° South 393 452 28,000  Level Houston Center
Wed 07:34:49 AM 32.2211 -92.6325 189° South 404 465 28,000 246 Level Houston Center
Wed 07:35:50 AM 32.1081 -92.6522 188° South 412 474 28,500 738 Climbing Houston Center
Wed 07:36:51 AM 32.0008 -92.6719 189° South 395 455 29,500 984 Climbing Houston Center
Wed 07:37:52 AM 31.9139 -92.7350 212° Southwest 373 429 30,500 934 Climbing Houston Center
Wed 07:38:53 AM 31.8378 -92.8097 220° Southwest 361 415 31,400 738 Climbing Houston Center
Wed 07:39:54 AM 31.7614 -92.8833 219° Southwest 358 412 32,000 295 Climbing Houston Center
Wed 07:40:55 AM 31.6836 -92.9586 219° Southwest 364 419 32,000  Level Houston Center
Wed 07:41:56 AM 31.5850 -93.0539 219° Southwest 384 442 32,000  Level Houston Center
Wed 07:42:57 AM 31.4997 -93.1356 219° Southwest 394 453 32,000  Level Houston Center
Wed 07:43:58 AM 31.4139 -93.2172 219° Southwest 400 460 32,000  Level Houston Center
Wed 07:44:59 AM 31.3264 -93.2994 219° Southwest 403 464 32,000  Level Houston Center
Wed 07:46:00 AM 31.2189 -93.3378 197° South 415 478 32,000 -98 Level Houston Center
Wed 07:47:02 AM 31.1097 -93.3606 190° South 404 465 31,800 -341 Descending Houston Center
Wed 07:48:03 AM 30.9978 -93.3836 190° South 406 467 31,300 -541 Descending Houston Center
Wed 07:49:04 AM 30.8864 -93.4083 191° South 408 470 30,700 -639 Descending Houston Center
Wed 07:50:05 AM 30.7633 -93.4714 204° Southwest 415 478 30,000 -1,463 Descending Houston Center
Wed 07:51:07 AM 30.6936 -93.5833 234° Southwest 425 489 27,700 -2,213 Descending Houston Center
Wed 07:52:07 AM 30.6194 -93.6978 233° Southwest 426 490 25,500 -2,213 Descending Houston Center
Wed 07:53:09 AM 30.5506 -93.8064 234° Southwest 415 478 23,200 -2,146 Descending Houston Center
Wed 07:54:10 AM 30.4869 -93.9075 234° Southwest 390 449 21,100 -2,164 Descending Houston Center
Wed 07:55:11 AM 30.4261 -94.0047 234° Southwest 373 429 18,800 -2,066 Descending Houston Center
Wed 07:56:12 AM 30.3656 -94.0986 233° Southwest 363 418 16,900 -1,952 Descending Houston Center
Wed 07:56:34 AM 30.3436 -94.1347 235° Southwest 354 407 16,100 -1,770 Descending Houston Center
Wed 07:57:13 AM 30.3081 -94.1889 233° Southwest 350 403 15,100 -1,881 Descending Houston Center
Wed 07:57:41 AM 30.2781 -94.2353 233° Southwest 345 397 14,000 -1,935 Descending Houston Center
Wed 07:58:15 AM 30.2503 -94.2781 233° Southwest 345 397 13,100 -1,672 Descending Houston Center
Wed 07:58:42 AM 30.2236 -94.3225 235° Southwest 340 391 12,300 -1,082 Descending Houston Center
Wed 07:59:16 AM 30.1972 -94.3669 236° Southwest 337 388 12,000 -505 Descending Houston Center
Wed 08:00:17 AM 30.1786 -94.4683 258° West 327 376 11,500 -667 Descending Houston Center
Wed 08:00:37 AM 30.1708 -94.5131 259° West 333 383 11,100 -984 Descending Houston Center
Wed 08:01:18 AM 30.1619 -94.5744 261° West 330 380 10,500 -984 Descending Houston Center
Wed 08:01:38 AM 30.1519 -94.6197 256° West 319 367 10,100 -968 Descending Houston Center
Wed 08:02:20 AM 30.1467 -94.6714 263° West 317 365 9,500 -1,180 Descending Houston Center
Wed 08:02:39 AM 30.1378 -94.7133 256° West 288 331 8,900 -1,425 Descending Houston Center
Wed 08:03:40 AM 30.1231 -94.8022 259° West 279 321 7,600 -1,282 Descending Houston Center
Wed 08:04:22 AM 30.1156 -94.8444 258° West 278 320 6,700 -932 Descending Houston Center
Wed 08:05:23 AM 30.1047 -94.9467 263° West 271 312 6,000 -341 Descending Houston Center
Wed 08:06:25 AM 30.1064 -95.0286 271° West 262 302 6,000  Level Houston Center
Wed 08:07:26 AM 30.1056 -95.1147 269° West 266 306 6,000  Level Houston Center
Wed 08:07:49 AM 30.1061 -95.1569 271° West 275 316 6,000  Level Houston Center
Wed 08:08:27 AM 30.1072 -95.2044 272° West 278 320 6,000  Level Houston Center
Wed 08:08:50 AM 30.1061 -95.2464 268° West 285 328 6,000  Level Houston Center
Wed 08:09:28 AM 30.1072 -95.2939 272° West 280 322 6,000  Level Houston Center
Wed 08:09:51 AM 30.1058 -95.3358 268° West 268 308 6,000  Level Houston Center
Wed 08:10:30 AM 30.1072 -95.3797 272° West 272 313 6,000  Level Houston Center
Wed 08:10:52 AM 30.1058 -95.4275 268° West 272 313 6,000 -393 Level Houston Center
Wed 08:11:31 AM 30.1064 -95.4658 271° West 270 311 5,600 -1,082 Descending Houston Center
Wed 08:11:53 AM 30.1053 -95.5144 268° West 273 314 4,900 -1,475 Descending Houston Center
Wed 08:12:32 AM 30.1075 -95.5706 273° West 272 313 4,100 -1,000 Descending Houston Center
Wed 08:12:47 AM 30.1061 -95.5917 266° West 266 306 4,000 -98 Descending Houston Center
Wed 08:13:33 AM 30.1061 -95.6514 270° West 258 297 4,000  Level Houston Center
Wed 08:13:48 AM 30.0919 -95.6683 226° Southwest 236 272 4,000  Level Houston Center
Wed 08:14:35 AM 30.0472 -95.6736 186° South 236 272 4,000  Level Houston Center
Wed 08:15:36 AM 29.9928 -95.6536 162° South 250 288 4,000 -146 Level Houston Center
Wed 08:16:38 AM 29.9936 -95.5764 89° East 243 280 3,700 -732 Descending Houston Center
Wed 08:17:39 AM 29.9931 -95.5000 90° East 240 276 2,500 -1,180 Descending Houston Center

Login

Don't have an account? Register now (free) for customized features, flight alerts, and more!